Time;durP1;ratioP1;P1;durP2;ratioP2;P2;SDS_P1;SDS_P2;PMS_P1;PMS_P2;Temp;Humidity;BMP_temperature;BMP_pressure;BME280_temperature;BME280_humidity;BME280_pressure;Samples;Min_cycle;Max_cycle;Signal;HPM_P1;HPM_P2
2023/11/24 00:00:09;;;;;;;3.70;2.50;;;;;;;6.94;100.00;97247.27;109379;1251;65095;-71
2023/11/24 00:02:56;;;;;;;2.50;2.20;;;;;;;6.93;100.00;97235.70;109616;1251;59085;-72
2023/11/24 00:05:23;;;;;;;2.60;2.40;;;;;;;6.94;100.00;97224.67;109641;1251;59009;-71
2023/11/24 00:07:49;;;;;;;3.30;2.40;;;;;;;6.94;100.00;97202.63;109412;1251;66987;-71
2023/11/24 00:10:17;;;;;;;3.80;2.00;;;;;;;6.94;100.00;97202.60;109635;1251;60140;-71
2023/11/24 00:12:44;;;;;;;2.20;2.00;;;;;;;6.94;100.00;97201.17;109420;1251;64968;-72
2023/11/24 00:15:11;;;;;;;2.30;2.10;;;;;;;6.96;100.00;97213.05;109587;1251;59001;-72
2023/11/24 00:17:39;;;;;;;2.10;1.90;;;;;;;6.97;100.00;97209.09;109422;1251;59006;-72
2023/11/24 00:20:10;;;;;;;2.30;1.70;;;;;;;6.96;100.00;97204.73;109657;1251;65975;-72
2023/11/24 00:22:37;;;;;;;2.10;2.00;;;;;;;6.94;100.00;97191.17;109489;1251;61286;-71
2023/11/24 00:25:04;;;;;;;3.30;1.90;;;;;;;6.92;100.00;97191.17;109659;1251;64034;-71
2023/11/24 00:27:31;;;;;;;1.70;1.60;;;;;;;6.90;100.00;97180.15;109658;1251;59030;-72
2023/11/24 00:29:57;;;;;;;1.80;1.70;;;;;;;6.89;100.00;97176.00;109591;1251;58994;-72
2023/11/24 00:32:25;;;;;;;1.70;1.60;;;;;;;6.90;100.00;97178.08;109667;1250;67267;-71
2023/11/24 00:34:51;;;;;;;2.00;1.50;;;;;;;6.90;100.00;97170.48;109699;1251;61216;-72
2023/11/24 00:37:18;;;;;;;2.20;1.40;;;;;;;6.94;100.00;97165.23;109577;1251;65105;-72
2023/11/24 00:39:44;;;;;;;3.00;1.90;;;;;;;6.97;100.00;97153.49;109614;1251;59004;-72
2023/11/24 00:42:11;;;;;;;1.60;1.50;;;;;;;6.97;100.00;97153.64;109636;1251;59117;-72
2023/11/24 00:44:38;;;;;;;1.90;1.50;;;;;;;6.95;100.00;97161.26;109654;1250;66024;-72
2023/11/24 00:47:04;;;;;;;2.80;2.00;;;;;;;6.93;100.00;97164.42;109655;1251;60039;-71
2023/11/24 00:49:32;;;;;;;1.60;1.50;;;;;;;6.90;100.00;97152.23;109656;1251;64017;-72
2023/11/24 00:51:58;;;;;;;1.60;1.30;;;;;;;6.90;100.00;97153.34;109604;1251;59041;-72
2023/11/24 00:54:25;;;;;;;1.60;1.50;;;;;;;6.92;100.00;97149.50;109644;1251;59840;-71
2023/11/24 00:56:52;;;;;;;2.30;1.40;;;;;;;6.91;100.00;97151.52;109582;1251;67056;-72
2023/11/24 00:59:18;;;;;;;1.80;1.70;;;;;;;6.87;100.00;97150.23;109233;1251;60055;-71
2023/11/24 01:01:45;;;;;;;2.60;1.80;;;;;;;6.83;100.00;97151.26;109604;1251;65257;-71
2023/11/24 01:04:12;;;;;;;1.90;1.70;;;;;;;6.79;100.00;97145.25;109653;1251;59103;-72
2023/11/24 01:06:39;;;;;;;1.80;1.60;;;;;;;6.76;100.00;97140.58;109584;1251;58918;-72
2023/11/24 01:09:05;;;;;;;1.80;1.60;;;;;;;6.72;100.00;97136.10;109583;1251;66969;-72
2023/11/24 01:11:33;;;;;;;1.90;1.80;;;;;;;6.72;100.00;97133.29;109610;1250;61208;-72
2023/11/24 01:13:59;;;;;;;1.80;1.40;;;;;;;6.70;100.00;97138.02;109611;1251;64204;-72
2023/11/24 01:16:26;;;;;;;1.40;1.30;;;;;;;6.68;100.00;97136.48;109593;1250;59666;-72
2023/11/24 01:18:52;;;;;;;1.90;1.70;;;;;;;6.66;100.00;97129.41;109679;1251;58986;-72
2023/11/24 01:21:19;;;;;;;1.80;1.70;;;;;;;6.63;100.00;97127.84;109646;1251;66002;-71
2023/11/24 01:23:45;;;;;;;1.80;1.70;;;;;;;6.63;100.00;97135.64;109594;1251;60080;-72
2023/11/24 01:26:13;;;;;;;1.90;1.50;;;;;;;6.60;100.00;97139.16;109632;1251;64176;-71
2023/11/24 01:28:40;;;;;;;1.40;1.30;;;;;;;6.59;100.00;97147.73;109632;1251;58940;-72
2023/11/24 01:31:07;;;;;;;1.60;1.50;;;;;;;6.57;100.00;97145.57;109292;1250;59058;-71
2023/11/24 01:33:37;;;;;;;2.00;1.90;;;;;;;6.55;100.00;97158.48;109593;1251;67119;-72
2023/11/24 01:36:04;;;;;;;2.50;2.30;;;;;;;6.53;100.00;97169.42;109296;1250;60064;-71
2023/11/24 01:38:31;;;;;;;2.40;2.20;;;;;;;6.49;100.00;97169.04;109581;1251;65131;-71
2023/11/24 01:40:57;;;;;;;2.30;2.10;;;;;;;6.42;100.00;97176.96;109360;1251;59319;-72
2023/11/24 01:43:25;;;;;;;3.30;2.00;;;;;;;6.36;100.00;97182.37;109707;1251;59803;-73
2023/11/24 01:45:51;;;;;;;2.70;1.90;;;;;;;6.31;100.00;97175.72;109586;1250;67077;-72
2023/11/24 01:48:19;;;;;;;2.40;2.20;;;;;;;6.25;100.00;97194.02;109623;1251;60802;-72
2023/11/24 01:50:46;;;;;;;3.70;3.20;;;;;;;6.21;100.00;97269.95;109416;1251;65109;-72
2023/11/24 01:53:14;;;;;;;4.50;2.30;;;;;;;6.13;100.00;97313.94;109538;1251;59041;-72
2023/11/24 01:55:41;;;;;;;2.90;2.40;;;;;;;5.48;100.00;97336.34;109704;1251;59053;-74
2023/11/24 01:58:08;;;;;;;6.30;2.90;;;;;;;4.49;100.00;97334.02;109643;1251;66115;-73
2023/11/24 02:00:36;;;;;;;1.50;1.40;;;;;;;4.03;100.00;97331.75;109624;1251;60707;-72
2023/11/24 02:03:03;;;;;;;2.90;1.50;;;;;;;3.83;100.00;97328.85;109419;1251;64082;-71
2023/11/24 02:05:30;;;;;;;2.50;1.30;;;;;;;3.77;100.00;97331.74;109658;1251;59401;-71
2023/11/24 02:07:57;;;;;;;1.20;1.10;;;;;;;3.76;100.00;97325.77;109558;1251;59028;-72
2023/11/24 02:10:25;;;;;;;2.10;1.10;;;;;;;3.81;100.00;97324.78;109645;1251;67002;-72
2023/11/24 02:12:51;;;;;;;3.10;1.50;;;;;;;3.83;100.00;97324.44;109654;1250;61099;-70
2023/11/24 02:15:18;;;;;;;1.20;1.10;;;;;;;3.85;100.00;97323.29;109393;1251;62825;-70
2023/11/24 02:17:45;;;;;;;1.30;1.00;;;;;;;3.85;100.00;97322.37;109573;1251;59306;-70
2023/11/24 02:20:13;;;;;;;1.70;1.40;;;;;;;3.86;100.00;97324.75;109593;1251;59062;-71
2023/11/24 02:22:44;;;;;;;1.70;1.40;;;;;;;3.86;100.00;97327.56;109591;1251;67056;-72
2023/11/24 02:25:11;;;;;;;2.30;1.00;;;;;;;3.87;100.00;97323.50;109462;1250;61134;-71
2023/11/24 02:27:37;;;;;;;1.40;0.90;;;;;;;3.87;100.00;97320.84;109634;1251;65769;-72
2023/11/24 02:30:05;;;;;;;2.00;1.00;;;;;;;3.87;100.00;97316.30;109576;1251;58944;-72
2023/11/24 02:32:33;;;;;;;1.20;0.60;;;;;;;3.87;100.00;97308.55;109521;1251;58943;-73
2023/11/24 02:35:00;;;;;;;0.70;0.30;;;;;;;3.88;100.00;97304.30;109601;1251;67196;-71
2023/11/24 02:37:27;;;;;;;2.80;0.60;;;;;;;3.89;100.00;97303.67;109427;1250;61149;-72
2023/11/24 02:39:54;;;;;;;0.80;0.50;;;;;;;3.89;100.00;97305.07;109625;1251;65108;-72
2023/11/24 02:42:20;;;;;;;1.20;0.70;;;;;;;3.89;100.00;97303.13;109639;1251;59080;-73
2023/11/24 02:44:47;;;;;;;1.60;0.60;;;;;;;3.90;100.00;97301.67;109600;1251;58865;-72
2023/11/24 02:47:13;;;;;;;1.40;0.40;;;;;;;3.90;100.00;97293.05;109429;1251;67046;-72
2023/11/24 02:49:40;;;;;;;1.60;0.60;;;;;;;3.91;100.00;97287.19;109576;1250;59367;-73
2023/11/24 02:52:07;;;;;;;1.70;0.70;;;;;;;3.92;100.00;97272.89;109612;1251;65112;-72
2023/11/24 02:54:34;;;;;;;1.10;0.60;;;;;;;3.93;100.00;97273.56;109575;1251;58977;-74
2023/11/24 02:57:01;;;;;;;1.60;0.60;;;;;;;3.94;100.00;97275.42;109669;1251;58936;-73
2023/11/24 02:59:27;;;;;;;0.90;0.40;;;;;;;3.93;100.00;97285.48;109624;1250;66973;-72
2023/11/24 03:01:54;;;;;;;0.90;0.60;;;;;;;3.93;100.00;97284.41;109574;1251;61333;-72
2023/11/24 03:04:21;;;;;;;1.70;0.50;;;;;;;3.95;100.00;97273.43;109589;1251;65393;-72
2023/11/24 03:06:48;;;;;;;1.50;1.40;;;;;;;3.95;100.00;97269.03;109627;1251;58960;-72
2023/11/24 03:09:16;;;;;;;4.30;2.40;;;;;;;3.95;100.00;97272.48;109676;1251;59011;-72
2023/11/24 03:11:42;;;;;;;2.70;2.50;;;;;;;3.96;100.00;97258.20;109638;1251;66976;-74
2023/11/24 03:14:09;;;;;;;1.90;1.80;;;;;;;3.96;100.00;97244.84;109629;1250;61020;-73
2023/11/24 03:16:36;;;;;;;1.40;1.30;;;;;;;3.98;100.00;97237.56;109625;1251;63667;-73
2023/11/24 03:19:04;;;;;;;0.80;0.80;;;;;;;3.99;100.00;97241.03;109651;1251;58853;-73
2023/11/24 03:21:31;;;;;;;1.00;0.70;;;;;;;4.00;100.00;97237.77;109282;1251;58977;-73
2023/11/24 03:23:57;;;;;;;0.60;0.60;;;;;;;4.01;100.00;97238.73;109607;1251;65973;-74
2023/11/24 03:26:24;;;;;;;0.70;0.60;;;;;;;4.01;100.00;97229.92;109621;1251;60309;-74
2023/11/24 03:28:51;;;;;;;1.80;0.50;;;;;;;4.03;100.00;97228.59;109654;1251;63825;-73
2023/11/24 03:31:17;;;;;;;1.40;0.50;;;;;;;4.05;100.00;97223.56;109560;1251;59004;-73
2023/11/24 03:33:44;;;;;;;1.00;0.70;;;;;;;4.07;100.00;97222.00;109625;1251;58958;-73
2023/11/24 03:36:11;;;;;;;1.20;0.80;;;;;;;4.09;100.00;97211.33;109623;1251;66055;-74
2023/11/24 03:38:38;;;;;;;1.90;0.60;;;;;;;4.11;100.00;97206.98;109649;1251;61005;-74
2023/11/24 03:41:05;;;;;;;0.80;0.60;;;;;;;4.13;100.00;97199.98;109328;1251;65369;-73
2023/11/24 03:43:31;;;;;;;1.00;0.80;;;;;;;4.15;100.00;97192.06;109605;1251;59228;-73
2023/11/24 03:45:58;;;;;;;0.90;0.50;;;;;;;4.17;100.00;97193.33;109627;1254;59062;-73
2023/11/24 03:48:25;;;;;;;2.20;0.60;;;;;;;4.20;100.00;97196.85;109652;1251;66995;-73
2023/11/24 03:50:51;;;;;;;1.60;0.80;;;;;;;4.23;100.00;97202.05;109620;1250;61251;-73
2023/11/24 03:53:18;;;;;;;1.40;0.50;;;;;;;4.26;100.00;97207.64;109626;1251;64032;-73
2023/11/24 03:55:46;;;;;;;1.30;0.70;;;;;;;4.29;100.00;97208.00;109464;1251;59022;-74
2023/11/24 03:58:14;;;;;;;2.20;1.00;;;;;;;4.31;100.00;97193.92;109641;1251;59049;-74
2023/11/24 04:00:41;;;;;;;1.20;0.90;;;;;;;4.34;100.00;97192.48;109586;1251;65961;-73
2023/11/24 04:03:07;;;;;;;0.80;0.80;;;;;;;4.37;100.00;97185.39;109622;1251;60307;-74
2023/11/24 04:05:34;;;;;;;3.40;1.20;;;;;;;4.40;100.00;97185.40;109597;1251;62807;-73
2023/11/24 04:08:01;;;;;;;3.30;0.90;;;;;;;4.41;100.00;97184.79;109657;1251;58990;-73
2023/11/24 04:10:27;;;;;;;2.10;0.90;;;;;;;4.41;100.00;97177.92;109588;1251;58846;-73
2023/11/24 04:12:54;;;;;;;1.10;1.00;;;;;;;4.43;100.00;97175.58;109620;1251;67120;-73
2023/11/24 04:15:20;;;;;;;2.10;1.20;;;;;;;4.42;100.00;97169.08;109688;1251;61099;-71
2023/11/24 04:17:47;;;;;;;1.50;0.90;;;;;;;4.42;100.00;97162.04;109615;1251;63795;-72
2023/11/24 04:20:14;;;;;;;3.30;1.00;;;;;;;4.42;100.00;97156.77;109540;1251;58974;-73
2023/11/24 04:22:41;;;;;;;1.70;1.10;;;;;;;4.43;100.00;97153.58;109442;1251;59053;-73
2023/11/24 04:25:10;;;;;;;2.10;1.30;;;;;;;4.44;100.00;97141.71;109352;1251;67075;-73
2023/11/24 04:27:37;;;;;;;2.90;1.40;;;;;;;4.43;100.00;97133.84;109620;1251;61414;-73
2023/11/24 04:30:06;;;;;;;4.30;1.80;;;;;;;4.42;100.00;97141.13;109607;1251;65201;-73
2023/11/24 04:32:33;;;;;;;2.20;1.60;;;;;;;4.39;100.00;97147.61;109274;1255;58964;-73
2023/11/24 04:34:59;;;;;;;1.30;1.10;;;;;;;4.37;100.00;97150.64;109289;1255;60693;-72
2023/11/24 04:37:26;;;;;;;2.60;1.40;;;;;;;4.35;100.00;97156.77;109256;1255;66180;-72
2023/11/24 04:39:52;;;;;;;1.60;1.40;;;;;;;4.32;100.00;97153.59;109332;1256;61072;-73
2023/11/24 04:42:20;;;;;;;2.20;1.10;;;;;;;4.31;100.00;97149.79;109229;1255;65067;-72
2023/11/24 04:44:47;;;;;;;1.40;1.20;;;;;;;4.31;100.00;97141.95;109221;1255;59088;-73
2023/11/24 04:47:14;;;;;;;3.00;1.80;;;;;;;4.30;100.00;97134.45;108982;1256;59103;-73
2023/11/24 04:49:40;;;;;;;4.20;1.70;;;;;;;4.30;100.00;97127.25;109271;1255;66047;-74
2023/11/24 04:52:07;;;;;;;3.00;2.30;;;;;;;4.30;100.00;97127.41;109285;1256;61225;-73
2023/11/24 04:54:33;;;;;;;3.10;2.10;;;;;;;4.29;100.00;97141.20;109264;1256;65425;-73
2023/11/24 04:57:00;;;;;;;4.70;2.60;;;;;;;4.28;100.00;97139.82;109286;1256;59467;-73
2023/11/24 04:59:27;;;;;;;4.00;2.10;;;;;;;4.29;100.00;97140.99;109302;1256;58989;-72
2023/11/24 05:01:54;;;;;;;4.20;2.00;;;;;;;4.30;100.00;97133.39;109284;1256;66949;-73
2023/11/24 05:04:20;;;;;;;2.10;1.40;;;;;;;4.33;100.00;97134.91;109209;1256;61170;-73
2023/11/24 05:06:47;;;;;;;3.00;1.70;;;;;;;4.36;100.00;97135.52;109152;1256;64022;-73
2023/11/24 05:09:14;;;;;;;3.50;2.40;;;;;;;4.39;100.00;97144.30;109176;1256;58978;-73
2023/11/24 05:11:41;;;;;;;7.40;2.00;;;;;;;4.43;100.00;97141.91;109594;1253;59079;-74
2023/11/24 05:14:08;;;;;;;3.50;1.80;;;;;;;4.49;100.00;97143.46;109567;1253;67240;-74
2023/11/24 05:16:35;;;;;;;4.30;1.70;;;;;;;4.52;100.00;97147.26;109405;1253;177697;-73
2023/11/24 05:19:01;;;;;;;3.20;2.60;;;;;;;4.55;100.00;97147.95;109567;1252;64068;-73
2023/11/24 05:21:28;;;;;;;2.90;2.50;;;;;;;4.56;100.00;97155.57;109152;1252;58996;-74
2023/11/24 05:23:54;;;;;;;4.80;3.70;;;;;;;4.57;100.00;97154.98;109563;1253;59013;-73
2023/11/24 05:26:22;;;;;;;4.50;3.40;;;;;;;4.57;100.00;97164.33;109601;1254;66137;-74
2023/11/24 05:28:49;;;;;;;4.20;1.80;;;;;;;4.57;100.00;97175.06;109387;1253;60240;-73
2023/11/24 05:31:15;;;;;;;4.10;1.70;;;;;;;4.56;100.00;97180.57;109540;1253;65107;-73
2023/11/24 05:33:42;;;;;;;2.60;1.20;;;;;;;4.54;100.00;97191.92;109556;1252;58959;-72
2023/11/24 05:36:09;;;;;;;2.60;1.10;;;;;;;4.44;100.00;97194.07;109548;1253;59091;-72
2023/11/24 05:38:39;;;;;;;5.20;2.60;;;;;;;4.31;100.00;97190.61;109531;1253;65813;-72
2023/11/24 05:41:06;;;;;;;2.50;1.70;;;;;;;4.18;100.00;97189.21;109583;1253;68754;-73
2023/11/24 05:43:32;;;;;;;4.10;1.10;;;;;;;4.09;100.00;97182.66;109548;1253;65492;-73
2023/11/24 05:46:00;;;;;;;2.80;1.10;;;;;;;4.02;100.00;97176.28;109472;1253;58999;-72
2023/11/24 05:48:28;;;;;;;3.00;1.00;;;;;;;3.96;100.00;97186.88;109311;1253;59065;-72
2023/11/24 05:50:56;;;;;;;3.20;1.40;;;;;;;3.90;100.00;97185.86;109541;1252;66963;-72
2023/11/24 05:53:23;;;;;;;4.10;1.20;;;;;;;3.82;100.00;97175.03;109579;1253;60902;-73
2023/11/24 05:55:49;;;;;;;3.40;0.80;;;;;;;3.73;100.00;97187.11;109569;1252;63646;-73
2023/11/24 05:58:17;;;;;;;2.20;1.00;;;;;;;3.64;100.00;97203.83;109542;1253;59042;-73
2023/11/24 06:00:44;;;;;;;1.80;1.30;;;;;;;3.57;100.00;97200.08;109501;1253;58925;-73
2023/11/24 06:03:10;;;;;;;6.90;2.10;;;;;;;3.51;100.00;97183.13;109568;1251;66185;-73
2023/11/24 06:05:37;;;;;;;4.80;1.60;;;;;;;3.44;100.00;97187.63;109620;1255;60051;-72
2023/11/24 06:08:04;;;;;;;3.60;1.60;;;;;;;3.37;100.00;97216.18;109620;1251;64059;-72
2023/11/24 06:10:31;;;;;;;2.90;1.30;;;;;;;3.30;100.00;97220.85;109553;1251;58960;-72
2023/11/24 06:12:58;;;;;;;4.70;1.40;;;;;;;3.22;100.00;97209.80;109579;1251;59023;-72
2023/11/24 06:15:26;;;;;;;2.90;1.40;;;;;;;3.17;100.00;97209.77;109597;1251;67070;-73
2023/11/24 06:17:53;;;;;;;3.00;1.30;;;;;;;3.13;100.00;97201.63;109600;1251;59950;-73
2023/11/24 06:20:19;;;;;;;2.40;1.60;;;;;;;3.09;100.00;97195.71;109536;1251;64241;-73
2023/11/24 06:22:47;;;;;;;5.40;1.10;;;;;;;3.04;100.00;97198.72;109592;1251;59069;-73
2023/11/24 06:25:14;;;;;;;1.80;1.20;;;;;;;2.97;100.00;97201.77;109640;1251;59402;-72
2023/11/24 06:27:40;;;;;;;2.90;1.80;;;;;;;2.92;100.00;97199.67;109609;1254;67008;-73
2023/11/24 06:30:07;;;;;;;2.10;1.40;;;;;;;2.85;100.00;97192.35;109628;1251;61101;-73
2023/11/24 06:32:34;;;;;;;2.70;1.30;;;;;;;2.82;100.00;97193.48;109544;1251;65220;-74
2023/11/24 06:35:01;;;;;;;1.90;1.30;;;;;;;2.78;100.00;97207.02;109337;1251;58977;-73
2023/11/24 06:37:28;;;;;;;2.30;1.50;;;;;;;2.75;100.00;97212.30;109582;1251;59155;-74
2023/11/24 06:39:55;;;;;;;3.50;1.50;;;;;;;2.74;100.00;97225.38;109581;1255;67289;-73
2023/11/24 06:42:21;;;;;;;2.20;1.30;;;;;;;2.73;100.00;97240.67;109369;1251;61051;-74
2023/11/24 06:44:48;;;;;;;1.50;1.20;;;;;;;2.74;100.00;97245.36;108856;1251;1002911;-73
2023/11/24 06:47:14;;;;;;;2.10;1.10;;;;;;;2.74;100.00;97247.28;109583;1251;58969;-74
2023/11/24 06:49:42;;;;;;;4.30;1.10;;;;;;;2.74;100.00;97247.11;109627;1251;58878;-73
2023/11/24 06:52:09;;;;;;;4.00;1.50;;;;;;;2.76;100.00;97251.38;109616;1251;66951;-73
2023/11/24 06:54:35;;;;;;;6.10;1.70;;;;;;;2.76;100.00;97253.96;109622;1251;59716;-73
2023/11/24 06:57:02;;;;;;;5.50;2.50;;;;;;;2.77;100.00;97256.88;109594;1251;65080;-73
2023/11/24 06:59:28;;;;;;;4.20;1.80;;;;;;;2.78;100.00;97259.13;109602;1251;58939;-73
2023/11/24 07:01:55;;;;;;;4.40;1.60;;;;;;;2.78;100.00;97268.25;109666;1251;59206;-72
2023/11/24 07:04:23;;;;;;;4.70;2.00;;;;;;;2.80;100.00;97267.61;109614;1251;67098;-74
2023/11/24 07:06:49;;;;;;;6.20;2.90;;;;;;;2.85;100.00;97268.83;109581;1251;60231;-73
2023/11/24 07:09:16;;;;;;;6.30;2.90;;;;;;;2.91;100.00;97264.30;109577;1251;65056;-73
2023/11/24 07:11:43;;;;;;;4.80;2.20;;;;;;;2.95;100.00;97264.71;109593;1251;58962;-74
2023/11/24 07:14:11;;;;;;;4.10;2.20;;;;;;;3.00;100.00;97267.03;109664;1251;59321;-74
2023/11/24 07:16:37;;;;;;;4.60;2.60;;;;;;;3.03;100.00;97266.65;109619;1251;67281;-81
2023/11/24 07:19:05;;;;;;;8.30;2.80;;;;;;;3.06;100.00;97273.48;109556;1251;59068;-77
2023/11/24 07:21:31;;;;;;;5.30;3.00;;;;;;;3.08;100.00;97277.19;109462;1254;65144;-78
2023/11/24 07:23:58;;;;;;;6.00;3.20;;;;;;;3.11;100.00;97271.80;109572;1251;59325;-75
2023/11/24 07:26:24;;;;;;;6.60;3.00;;;;;;;3.13;100.00;97257.25;109530;1251;58935;-75
2023/11/24 07:28:51;;;;;;;3.40;2.50;;;;;;;3.15;100.00;97251.65;109531;1251;67245;-76
2023/11/24 07:31:18;;;;;;;3.50;1.80;;;;;;;3.18;100.00;97253.38;109494;1253;60200;-75
2023/11/24 07:33:48;;;;;;;8.70;3.30;;;;;;;3.21;100.00;97253.38;107925;1252;1002750;-76
2023/11/24 07:36:16;;;;;;;5.20;3.00;;;;;;;3.25;100.00;97250.52;109530;1251;58946;-75
2023/11/24 07:38:43;;;;;;;6.50;3.80;;;;;;;3.30;100.00;97248.42;109590;1251;58882;-78
2023/11/24 07:41:10;;;;;;;11.00;4.30;;;;;;;3.36;100.00;97244.36;109539;1251;65986;-83
2023/11/24 07:43:37;;;;;;;15.40;6.90;;;;;;;3.40;100.00;97243.70;109627;1251;59057;-75
2023/11/24 07:46:07;;;;;;;11.30;8.20;;;;;;;3.42;100.00;97240.56;109565;1251;63970;-75
2023/11/24 07:48:34;;;;;;;15.80;10.00;;;;;;;3.43;100.00;97241.41;109308;1251;59034;-76
2023/11/24 07:51:05;;;;;;;18.70;10.10;;;;;;;3.43;100.00;97242.33;109621;1251;59048;-76
2023/11/24 07:53:33;;;;;;;14.50;9.70;;;;;;;3.43;100.00;97247.21;109584;1251;66163;-75
2023/11/24 07:56:00;;;;;;;16.00;9.30;;;;;;;3.47;100.00;97248.20;109615;1251;61553;-76
2023/11/24 07:58:28;;;;;;;16.20;8.40;;;;;;;3.50;100.00;97250.27;109560;1251;63727;-75
2023/11/24 08:00:55;;;;;;;16.60;8.50;;;;;;;3.58;100.00;97243.59;109526;1251;59224;-75
2023/11/24 08:03:27;;;;;;;8.30;7.00;;;;;;;3.70;100.00;97239.23;109628;1251;59024;-75
2023/11/24 08:05:55;;;;;;;13.50;9.50;;;;;;;3.90;100.00;97238.23;109599;1251;65662;-76
2023/11/24 08:08:22;;;;;;;9.50;6.00;;;;;;;4.09;100.00;97244.83;109640;1251;61258;-76
2023/11/24 08:10:49;;;;;;;6.90;4.60;;;;;;;4.15;100.00;97245.13;109644;1251;64009;-76
2023/11/24 08:13:15;;;;;;;7.10;3.10;;;;;;;4.12;100.00;97241.87;109543;1251;58979;-76
2023/11/24 08:15:43;;;;;;;7.30;3.50;;;;;;;4.05;100.00;97239.69;109654;1251;58871;-75
2023/11/24 08:18:09;;;;;;;10.10;4.20;;;;;;;4.02;100.00;97245.36;109581;1251;65826;-75
2023/11/24 08:20:36;;;;;;;10.40;5.00;;;;;;;4.00;100.00;97248.83;109262;1251;60150;-75
2023/11/24 08:23:03;;;;;;;9.70;6.40;;;;;;;4.00;100.00;97248.85;109585;1251;64076;-76
2023/11/24 08:25:30;;;;;;;9.10;6.00;;;;;;;3.97;100.00;97247.98;109588;1251;59024;-76
2023/11/24 08:27:56;;;;;;;13.40;6.60;;;;;;;3.91;100.00;97251.69;109599;1251;59058;-76
2023/11/24 08:30:23;;;;;;;14.80;7.60;;;;;;;3.86;100.00;97248.16;109631;1251;67472;-76
2023/11/24 08:32:50;;;;;;;11.40;7.20;;;;;;;3.85;100.00;97243.02;109611;1251;59803;-77
2023/11/24 08:35:17;;;;;;;14.80;7.10;;;;;;;3.89;100.00;97242.36;109601;1251;64035;-76
2023/11/24 08:37:43;;;;;;;12.50;6.30;;;;;;;3.97;100.00;97235.02;109612;1251;58955;-76
2023/11/24 08:40:14;;;;;;;10.50;5.70;;;;;;;4.03;100.00;97240.91;109650;1251;58907;-76
2023/11/24 08:42:42;;;;;;;15.70;6.80;;;;;;;4.05;100.00;97241.84;108848;1251;1002431;-75
2023/11/24 08:45:09;;;;;;;14.90;6.00;;;;;;;4.03;100.00;97233.72;109598;1251;59990;-76
2023/11/24 08:47:35;;;;;;;11.60;3.70;;;;;;;4.01;100.00;97230.16;109633;1251;65118;-76
2023/11/24 08:50:03;;;;;;;13.00;2.60;;;;;;;4.02;100.00;97227.94;109593;1251;59030;-76
2023/11/24 08:52:29;;;;;;;7.70;2.80;;;;;;;4.07;100.00;97239.04;109625;1251;59017;-76
2023/11/24 08:54:56;;;;;;;6.10;2.90;;;;;;;4.13;100.00;97235.42;109608;1251;67055;-75
2023/11/24 08:57:22;;;;;;;6.00;2.70;;;;;;;4.19;100.00;97233.60;109599;1251;60128;-76
2023/11/24 08:59:49;;;;;;;10.70;3.00;;;;;;;4.25;100.00;97227.60;109556;1251;64963;-76
2023/11/24 09:02:16;;;;;;;10.90;3.80;;;;;;;4.32;100.00;97226.53;109578;1251;58983;-77
2023/11/24 09:04:44;;;;;;;7.10;2.60;;;;;;;4.40;100.00;97221.27;109396;1251;59038;-77
2023/11/24 09:07:12;;;;;;;4.90;1.80;;;;;;;4.44;100.00;97218.67;109626;1250;66954;-77
2023/11/24 09:09:41;;;;;;;4.60;2.00;;;;;;;4.48;100.00;97216.11;109422;1254;61090;-77
2023/11/24 09:12:07;;;;;;;6.90;2.90;;;;;;;4.51;100.00;97211.33;109580;1251;65133;-77
2023/11/24 09:14:38;;;;;;;4.90;2.00;;;;;;;4.57;100.00;97208.59;109618;1251;59031;-76
2023/11/24 09:17:04;;;;;;;4.30;1.80;;;;;;;4.59;100.00;97207.97;109617;1251;58858;-77
2023/11/24 09:19:31;;;;;;;3.00;1.40;;;;;;;4.59;100.00;97205.33;109289;1254;66051;-76
2023/11/24 09:22:03;;;;;;;6.80;2.80;;;;;;;4.58;100.00;97207.34;109514;1252;60047;-76
2023/11/24 09:24:29;;;;;;;7.40;2.20;;;;;;;4.56;100.00;97204.86;109522;1253;64855;-75
2023/11/24 09:26:56;;;;;;;6.50;2.00;;;;;;;4.59;100.00;97200.77;109544;1252;58993;-75
2023/11/24 09:29:23;;;;;;;6.10;2.50;;;;;;;4.61;100.00;97193.52;109545;1253;59040;-76
2023/11/24 09:31:50;;;;;;;6.40;2.50;;;;;;;4.71;100.00;97186.18;109494;1254;67042;-76
2023/11/24 09:34:16;;;;;;;9.60;3.40;;;;;;;4.84;100.00;97180.84;109581;1253;61019;-76
2023/11/24 09:36:43;;;;;;;7.60;3.80;;;;;;;5.00;100.00;97172.77;109536;1252;65248;-75
2023/11/24 09:39:09;;;;;;;8.20;3.90;;;;;;;5.15;100.00;97173.59;109505;1254;58990;-76
2023/11/24 09:41:39;;;;;;;7.80;3.40;;;;;;;5.26;100.00;97164.66;109579;1253;58892;-77
2023/11/24 09:44:10;;;;;;;7.50;3.70;;;;;;;5.32;100.00;97161.23;109583;1252;65931;-75
2023/11/24 09:46:39;;;;;;;10.60;3.80;;;;;;;5.37;100.00;97154.73;109525;1253;60073;-75
2023/11/24 09:49:08;;;;;;;7.00;3.40;;;;;;;5.41;100.00;97144.77;109556;1252;65058;-76
2023/11/24 09:51:37;;;;;;;10.20;3.40;;;;;;;5.43;100.00;97147.06;109512;1253;58958;-76
2023/11/24 09:54:05;;;;;;;10.00;2.90;;;;;;;5.47;100.00;97151.11;109527;1252;59036;-76
2023/11/24 09:56:32;;;;;;;8.20;3.30;;;;;;;5.52;100.00;97153.98;109381;1252;66052;-76
2023/11/24 09:58:59;;;;;;;6.80;2.80;;;;;;;5.53;100.00;97145.93;109482;1251;61059;-76
2023/11/24 10:01:27;;;;;;;8.90;3.70;;;;;;;5.55;100.00;97132.61;109537;1253;65056;-76
2023/11/24 10:03:58;;;;;;;7.30;3.30;;;;;;;5.60;100.00;97114.05;109544;1252;59063;-76
2023/11/24 10:06:27;;;;;;;3.60;2.20;;;;;;;5.64;100.00;97101.25;109216;1254;59060;-76
2023/11/24 10:08:57;;;;;;;6.40;2.90;;;;;;;5.63;100.00;97096.39;109519;1253;67081;-76
2023/11/24 10:11:28;;;;;;;8.90;3.30;;;;;;;5.61;100.00;97096.72;109574;1252;61473;-77
2023/11/24 10:13:56;;;;;;;5.70;2.70;;;;;;;5.61;100.00;97096.21;109275;1253;65040;-78
2023/11/24 10:16:23;;;;;;;6.20;2.60;;;;;;;5.61;100.00;97082.95;109543;1254;59016;-76
2023/11/24 10:18:55;;;;;;;10.30;3.70;;;;;;;5.60;100.00;97078.46;109564;1253;58935;-76
2023/11/24 10:21:22;;;;;;;5.80;2.70;;;;;;;5.58;100.00;97071.41;109519;1251;67077;-77
2023/11/24 10:23:48;;;;;;;6.80;2.60;;;;;;;5.61;100.00;97066.41;109564;1254;60052;-76
2023/11/24 10:26:16;;;;;;;8.20;3.20;;;;;;;5.61;100.00;97065.52;109565;1252;65033;-77
2023/11/24 10:28:46;;;;;;;7.30;3.00;;;;;;;5.56;100.00;97065.77;109547;1253;59026;-77
2023/11/24 10:31:13;;;;;;;10.40;3.50;;;;;;;5.57;100.00;97064.29;109532;1252;58946;-77
2023/11/24 10:33:41;;;;;;;10.00;3.00;;;;;;;5.65;100.00;97060.80;109562;1253;66136;-76
2023/11/24 10:36:08;;;;;;;9.30;2.80;;;;;;;5.72;100.00;97051.26;109539;1252;61262;-76
2023/11/24 10:38:39;;;;;;;7.40;3.70;;;;;;;5.88;100.00;97042.80;109555;1253;65132;-76
2023/11/24 10:41:11;;;;;;;10.60;3.30;;;;;;;6.03;100.00;97031.57;109496;1252;58978;-76
2023/11/24 10:43:38;;;;;;;7.20;2.40;;;;;;;6.14;100.00;97022.05;109429;1252;59445;-77
2023/11/24 10:46:11;;;;;;;6.70;2.80;;;;;;;6.30;100.00;97016.67;109564;1254;67024;-77
2023/11/24 10:49:13;;;;;;;8.00;2.50;;;;;;;6.52;100.00;97008.06;109393;1254;60276;-76
2023/11/24 10:51:48;;;;;;;3.40;2.00;;;;;;;6.66;100.00;97005.48;108958;1260;64119;-77
2023/11/24 10:54:23;;;;;;;8.10;2.60;;;;;;;6.66;100.00;97004.09;108938;1259;59104;-78
2023/11/24 10:56:53;;;;;;;9.80;2.90;;;;;;;6.72;100.00;96996.64;108969;1260;58966;-77
2023/11/24 10:59:19;;;;;;;;;;;;;;;6.80;100.00;96983.45;108970;1259;65996;-77
2023/11/24 11:01:46;;;;;;;6.50;2.10;;;;;;;6.79;100.00;96974.34;108948;1260;60121;-77
2023/11/24 11:04:14;;;;;;;8.40;2.50;;;;;;;6.67;100.00;96982.66;108955;1259;64022;-78
2023/11/24 11:07:04;;;;;;;5.80;1.90;;;;;;;6.45;100.00;96981.31;108956;1259;59140;-76
2023/11/24 11:09:47;;;;;;;6.50;2.10;;;;;;;6.29;100.00;96979.75;108949;1259;59573;-77
2023/11/24 11:12:31;;;;;;;6.50;2.30;;;;;;;6.32;100.00;96971.56;108935;1259;67046;-77
2023/11/24 11:14:58;;;;;;;5.10;1.80;;;;;;;6.50;100.00;96971.70;108928;1259;60353;-77
2023/11/24 11:17:26;;;;;;;8.80;3.00;;;;;;;6.54;100.00;96974.33;108942;1259;64877;-77
2023/11/24 11:19:58;;;;;;;6.10;2.30;;;;;;;6.53;100.00;96972.54;108928;1260;59124;-77
2023/11/24 11:22:36;;;;;;;4.50;1.90;;;;;;;6.50;100.00;96969.77;108949;1260;59076;-77
2023/11/24 11:25:31;;;;;;;6.00;2.40;;;;;;;6.48;100.00;96968.17;108921;1260;66011;-76